sensor_id;sensor_type;location;lat;lon;timestamp;temperature;humidity
76787;DHT22;65739;51.482;5.702;2023-07-28T00:02:22;17.60;99.90
76787;DHT22;65739;51.482;5.702;2023-07-28T00:04:48;17.70;99.90
76787;DHT22;65739;51.482;5.702;2023-07-28T00:07:13;17.70;99.90
76787;DHT22;65739;51.482;5.702;2023-07-28T00:09:39;17.70;99.90
76787;DHT22;65739;51.482;5.702;2023-07-28T00:12:05;17.70;99.90
76787;DHT22;65739;51.482;5.702;2023-07-28T00:14:30;17.70;99.90
76787;DHT22;65739;51.482;5.702;2023-07-28T00:16:57;17.70;99.90
76787;DHT22;65739;51.482;5.702;2023-07-28T00:19:22;17.60;99.90
76787;DHT22;65739;51.482;5.702;2023-07-28T00:21:48;17.70;99.90
76787;DHT22;65739;51.482;5.702;2023-07-28T00:24:14;17.70;99.90
76787;DHT22;65739;51.482;5.702;2023-07-28T00:26:40;17.70;99.90
76787;DHT22;65739;51.482;5.702;2023-07-28T00:29:06;17.70;99.90
76787;DHT22;65739;51.482;5.702;2023-07-28T00:31:33;17.70;99.90
76787;DHT22;65739;51.482;5.702;2023-07-28T00:33:58;17.60;99.90
76787;DHT22;65739;51.482;5.702;2023-07-28T00:36:24;17.70;99.90
76787;DHT22;65739;51.482;5.702;2023-07-28T00:38:49;17.70;99.90
76787;DHT22;65739;51.482;5.702;2023-07-28T00:41:15;17.70;99.90
76787;DHT22;65739;51.482;5.702;2023-07-28T00:43:40;17.60;99.90
76787;DHT22;65739;51.482;5.702;2023-07-28T00:46:06;17.70;99.90
76787;DHT22;65739;51.482;5.702;2023-07-28T00:48:32;17.60;99.90
76787;DHT22;65739;51.482;5.702;2023-07-28T00:50:58;17.70;99.90
76787;DHT22;65739;51.482;5.702;2023-07-28T00:53:24;17.70;99.90
76787;DHT22;65739;51.482;5.702;2023-07-28T00:55:50;17.60;99.90
76787;DHT22;65739;51.482;5.702;2023-07-28T00:58:16;17.60;99.90
76787;DHT22;65739;51.482;5.702;2023-07-28T01:00:41;17.70;99.90
76787;DHT22;65739;51.482;5.702;2023-07-28T01:03:07;17.70;99.90
76787;DHT22;65739;51.482;5.702;2023-07-28T01:05:55;17.70;99.90
76787;DHT22;65739;51.482;5.702;2023-07-28T01:08:29;17.60;99.90
76787;DHT22;65739;51.482;5.702;2023-07-28T01:10:55;17.70;99.90
76787;DHT22;65739;51.482;5.702;2023-07-28T01:13:21;17.70;99.90
76787;DHT22;65739;51.482;5.702;2023-07-28T01:15:47;17.70;99.90
76787;DHT22;65739;51.482;5.702;2023-07-28T01:18:13;17.70;99.90
76787;DHT22;65739;51.482;5.702;2023-07-28T01:20:39;17.70;99.90
76787;DHT22;65739;51.482;5.702;2023-07-28T01:23:29;17.70;99.90
76787;DHT22;65739;51.482;5.702;2023-07-28T01:26:09;17.70;99.90
76787;DHT22;65739;51.482;5.702;2023-07-28T01:28:35;17.70;99.90
76787;DHT22;65739;51.482;5.702;2023-07-28T01:31:06;17.70;99.90
76787;DHT22;65739;51.482;5.702;2023-07-28T01:33:32;17.70;99.90
76787;DHT22;65739;51.482;5.702;2023-07-28T01:35:57;17.80;99.90
76787;DHT22;65739;51.482;5.702;2023-07-28T01:38:27;17.70;99.90
76787;DHT22;65739;51.482;5.702;2023-07-28T01:40:52;17.80;99.90
76787;DHT22;65739;51.482;5.702;2023-07-28T01:43:18;17.80;99.90
76787;DHT22;65739;51.482;5.702;2023-07-28T01:45:43;17.70;99.90
76787;DHT22;65739;51.482;5.702;2023-07-28T01:48:09;17.70;99.90
76787;DHT22;65739;51.482;5.702;2023-07-28T01:50:35;17.80;99.90
76787;DHT22;65739;51.482;5.702;2023-07-28T01:53:01;17.80;99.90
76787;DHT22;65739;51.482;5.702;2023-07-28T01:55:27;17.70;99.90
76787;DHT22;65739;51.482;5.702;2023-07-28T01:57:58;17.80;99.90
76787;DHT22;65739;51.482;5.702;2023-07-28T02:00:24;17.80;99.90
76787;DHT22;65739;51.482;5.702;2023-07-28T02:02:50;17.80;99.90
76787;DHT22;65739;51.482;5.702;2023-07-28T02:05:16;17.70;99.90
76787;DHT22;65739;51.482;5.702;2023-07-28T02:07:42;17.70;99.90
76787;DHT22;65739;51.482;5.702;2023-07-28T02:10:08;17.70;99.90
76787;DHT22;65739;51.482;5.702;2023-07-28T02:12:34;17.80;99.90
76787;DHT22;65739;51.482;5.702;2023-07-28T02:14:59;17.70;99.90
76787;DHT22;65739;51.482;5.702;2023-07-28T02:17:25;17.70;99.90
76787;DHT22;65739;51.482;5.702;2023-07-28T02:19:50;17.70;99.90
76787;DHT22;65739;51.482;5.702;2023-07-28T02:22:16;17.70;99.90
76787;DHT22;65739;51.482;5.702;2023-07-28T02:24:41;17.80;99.90
76787;DHT22;65739;51.482;5.702;2023-07-28T02:27:07;17.70;99.90
76787;DHT22;65739;51.482;5.702;2023-07-28T02:29:33;17.70;99.90
76787;DHT22;65739;51.482;5.702;2023-07-28T02:31:58;17.80;99.90
76787;DHT22;65739;51.482;5.702;2023-07-28T02:34:24;17.70;99.90
76787;DHT22;65739;51.482;5.702;2023-07-28T02:36:49;17.70;99.90
76787;DHT22;65739;51.482;5.702;2023-07-28T02:39:15;17.70;99.90
76787;DHT22;65739;51.482;5.702;2023-07-28T02:41:40;17.70;99.90
76787;DHT22;65739;51.482;5.702;2023-07-28T02:44:06;17.70;99.90
76787;DHT22;65739;51.482;5.702;2023-07-28T02:46:31;17.70;99.90
76787;DHT22;65739;51.482;5.702;2023-07-28T02:48:57;17.70;99.90
76787;DHT22;65739;51.482;5.702;2023-07-28T02:51:23;17.80;99.90
76787;DHT22;65739;51.482;5.702;2023-07-28T02:53:48;17.80;99.90
76787;DHT22;65739;51.482;5.702;2023-07-28T02:56:14;17.70;99.90
76787;DHT22;65739;51.482;5.702;2023-07-28T02:58:39;17.70;99.90
76787;DHT22;65739;51.482;5.702;2023-07-28T03:01:05;17.80;99.90
76787;DHT22;65739;51.482;5.702;2023-07-28T03:03:30;17.70;99.90
76787;DHT22;65739;51.482;5.702;2023-07-28T03:05:56;17.80;99.90
76787;DHT22;65739;51.482;5.702;2023-07-28T03:08:22;17.70;99.90
76787;DHT22;65739;51.482;5.702;2023-07-28T03:10:48;17.70;99.90
76787;DHT22;65739;51.482;5.702;2023-07-28T03:13:13;17.70;99.90
76787;DHT22;65739;51.482;5.702;2023-07-28T03:15:39;17.80;99.90
76787;DHT22;65739;51.482;5.702;2023-07-28T03:18:04;17.80;99.90
76787;DHT22;65739;51.482;5.702;2023-07-28T03:20:30;17.70;99.90
76787;DHT22;65739;51.482;5.702;2023-07-28T03:22:55;17.80;99.90
76787;DHT22;65739;51.482;5.702;2023-07-28T03:25:21;17.80;99.90
76787;DHT22;65739;51.482;5.702;2023-07-28T03:27:47;17.80;99.90
76787;DHT22;65739;51.482;5.702;2023-07-28T03:30:12;17.80;99.90
76787;DHT22;65739;51.482;5.702;2023-07-28T03:32:38;17.80;99.90
76787;DHT22;65739;51.482;5.702;2023-07-28T03:35:04;17.80;99.90
76787;DHT22;65739;51.482;5.702;2023-07-28T03:37:31;17.80;99.90
76787;DHT22;65739;51.482;5.702;2023-07-28T03:39:57;17.80;99.90
76787;DHT22;65739;51.482;5.702;2023-07-28T03:42:22;17.80;99.90
76787;DHT22;65739;51.482;5.702;2023-07-28T03:44:48;17.80;99.90
76787;DHT22;65739;51.482;5.702;2023-07-28T03:47:13;17.80;99.90
76787;DHT22;65739;51.482;5.702;2023-07-28T03:49:39;17.80;99.90
76787;DHT22;65739;51.482;5.702;2023-07-28T03:52:05;17.70;99.90
76787;DHT22;65739;51.482;5.702;2023-07-28T03:54:30;17.80;99.90
76787;DHT22;65739;51.482;5.702;2023-07-28T03:56:56;18.00;99.90
76787;DHT22;65739;51.482;5.702;2023-07-28T03:59:21;17.80;99.90
76787;DHT22;65739;51.482;5.702;2023-07-28T04:01:47;17.80;99.90
76787;DHT22;65739;51.482;5.702;2023-07-28T04:04:13;17.80;99.90
76787;DHT22;65739;51.482;5.702;2023-07-28T04:06:43;17.80;99.90
76787;DHT22;65739;51.482;5.702;2023-07-28T04:09:09;17.90;99.90
76787;DHT22;65739;51.482;5.702;2023-07-28T04:11:35;17.80;99.90
76787;DHT22;65739;51.482;5.702;2023-07-28T04:14:01;17.80;99.90
76787;DHT22;65739;51.482;5.702;2023-07-28T04:16:27;17.70;99.90
76787;DHT22;65739;51.482;5.702;2023-07-28T04:18:53;17.70;99.90
76787;DHT22;65739;51.482;5.702;2023-07-28T04:21:18;17.70;99.90
76787;DHT22;65739;51.482;5.702;2023-07-28T04:23:44;17.70;99.90
76787;DHT22;65739;51.482;5.702;2023-07-28T04:26:09;17.70;99.90
76787;DHT22;65739;51.482;5.702;2023-07-28T04:28:35;17.70;99.90
76787;DHT22;65739;51.482;5.702;2023-07-28T04:31:00;17.70;99.90
76787;DHT22;65739;51.482;5.702;2023-07-28T04:33:26;17.70;99.90
76787;DHT22;65739;51.482;5.702;2023-07-28T04:35:52;17.70;99.90
76787;DHT22;65739;51.482;5.702;2023-07-28T04:38:17;17.70;99.90
76787;DHT22;65739;51.482;5.702;2023-07-28T04:40:44;17.70;99.90
76787;DHT22;65739;51.482;5.702;2023-07-28T04:43:10;17.70;99.90
76787;DHT22;65739;51.482;5.702;2023-07-28T04:45:35;17.70;99.90
76787;DHT22;65739;51.482;5.702;2023-07-28T04:48:01;17.60;99.90
76787;DHT22;65739;51.482;5.702;2023-07-28T04:50:26;17.70;99.90
76787;DHT22;65739;51.482;5.702;2023-07-28T04:52:52;17.70;99.90
76787;DHT22;65739;51.482;5.702;2023-07-28T04:55:18;17.70;99.90
76787;DHT22;65739;51.482;5.702;2023-07-28T04:57:43;17.70;99.90
76787;DHT22;65739;51.482;5.702;2023-07-28T05:00:09;17.70;99.90
76787;DHT22;65739;51.482;5.702;2023-07-28T05:02:35;17.70;99.90
76787;DHT22;65739;51.482;5.702;2023-07-28T05:05:01;17.70;99.90
76787;DHT22;65739;51.482;5.702;2023-07-28T05:07:26;17.70;99.90
76787;DHT22;65739;51.482;5.702;2023-07-28T05:09:52;17.80;99.90
76787;DHT22;65739;51.482;5.702;2023-07-28T05:12:17;17.70;99.90
76787;DHT22;65739;51.482;5.702;2023-07-28T05:14:43;17.80;99.90
76787;DHT22;65739;51.482;5.702;2023-07-28T05:17:09;17.80;99.90
76787;DHT22;65739;51.482;5.702;2023-07-28T05:19:34;17.80;99.90
76787;DHT22;65739;51.482;5.702;2023-07-28T05:22:00;17.80;99.90
76787;DHT22;65739;51.482;5.702;2023-07-28T05:24:25;17.90;99.90
76787;DHT22;65739;51.482;5.702;2023-07-28T05:26:51;17.80;99.90
76787;DHT22;65739;51.482;5.702;2023-07-28T05:29:17;17.80;99.90
76787;DHT22;65739;51.482;5.702;2023-07-28T05:31:42;17.70;99.90
76787;DHT22;65739;51.482;5.702;2023-07-28T05:34:08;17.80;99.90
76787;DHT22;65739;51.482;5.702;2023-07-28T05:36:33;17.80;99.90
76787;DHT22;65739;51.482;5.702;2023-07-28T05:38:59;17.90;99.90
76787;DHT22;65739;51.482;5.702;2023-07-28T05:41:25;17.80;99.90
76787;DHT22;65739;51.482;5.702;2023-07-28T05:43:51;17.90;99.90
76787;DHT22;65739;51.482;5.702;2023-07-28T05:46:17;17.90;99.90
76787;DHT22;65739;51.482;5.702;2023-07-28T05:48:43;17.90;99.90
76787;DHT22;65739;51.482;5.702;2023-07-28T05:51:08;17.90;99.90
76787;DHT22;65739;51.482;5.702;2023-07-28T05:53:34;17.90;99.90
76787;DHT22;65739;51.482;5.702;2023-07-28T05:55:59;18.00;99.90
76787;DHT22;65739;51.482;5.702;2023-07-28T05:58:25;18.00;99.90
76787;DHT22;65739;51.482;5.702;2023-07-28T06:00:50;18.10;99.90
76787;DHT22;65739;51.482;5.702;2023-07-28T06:03:16;18.10;99.90
76787;DHT22;65739;51.482;5.702;2023-07-28T06:05:41;18.10;99.90
76787;DHT22;65739;51.482;5.702;2023-07-28T06:08:07;18.30;99.90
76787;DHT22;65739;51.482;5.702;2023-07-28T06:10:33;18.20;99.90
76787;DHT22;65739;51.482;5.702;2023-07-28T06:12:59;18.30;99.90
76787;DHT22;65739;51.482;5.702;2023-07-28T06:15:25;18.30;99.90
76787;DHT22;65739;51.482;5.702;2023-07-28T06:17:50;18.50;99.90
76787;DHT22;65739;51.482;5.702;2023-07-28T06:20:16;18.40;99.90
76787;DHT22;65739;51.482;5.702;2023-07-28T06:22:42;18.50;99.90
76787;DHT22;65739;51.482;5.702;2023-07-28T06:25:07;18.50;99.90
76787;DHT22;65739;51.482;5.702;2023-07-28T06:27:33;18.50;99.90
76787;DHT22;65739;51.482;5.702;2023-07-28T06:29:59;19.10;99.90
76787;DHT22;65739;51.482;5.702;2023-07-28T06:32:24;18.50;99.90
76787;DHT22;65739;51.482;5.702;2023-07-28T06:34:50;18.60;99.90
76787;DHT22;65739;51.482;5.702;2023-07-28T06:37:17;18.70;99.90
76787;DHT22;65739;51.482;5.702;2023-07-28T06:42:15;18.80;99.90
76787;DHT22;65739;51.482;5.702;2023-07-28T06:44:52;18.80;99.90
76787;DHT22;65739;51.482;5.702;2023-07-28T06:47:18;18.80;99.90
76787;DHT22;65739;51.482;5.702;2023-07-28T06:49:43;18.70;99.90
76787;DHT22;65739;51.482;5.702;2023-07-28T06:52:09;18.80;99.90
76787;DHT22;65739;51.482;5.702;2023-07-28T06:54:36;18.80;99.90
76787;DHT22;65739;51.482;5.702;2023-07-28T06:57:01;18.80;99.90
76787;DHT22;65739;51.482;5.702;2023-07-28T06:59:27;19.00;99.90
76787;DHT22;65739;51.482;5.702;2023-07-28T07:01:53;19.00;99.90
76787;DHT22;65739;51.482;5.702;2023-07-28T07:04:19;18.80;99.90
76787;DHT22;65739;51.482;5.702;2023-07-28T07:06:44;18.90;99.90
76787;DHT22;65739;51.482;5.702;2023-07-28T07:09:10;19.00;99.90
76787;DHT22;65739;51.482;5.702;2023-07-28T07:11:40;19.00;99.90
76787;DHT22;65739;51.482;5.702;2023-07-28T07:14:07;19.00;99.90
76787;DHT22;65739;51.482;5.702;2023-07-28T07:16:33;19.00;99.90
76787;DHT22;65739;51.482;5.702;2023-07-28T07:18:59;19.20;99.90
76787;DHT22;65739;51.482;5.702;2023-07-28T07:21:25;19.30;99.90
76787;DHT22;65739;51.482;5.702;2023-07-28T07:23:51;19.40;99.90
76787;DHT22;65739;51.482;5.702;2023-07-28T07:26:17;19.30;99.90
76787;DHT22;65739;51.482;5.702;2023-07-28T07:28:42;19.30;99.90
76787;DHT22;65739;51.482;5.702;2023-07-28T07:31:15;19.20;99.90
76787;DHT22;65739;51.482;5.702;2023-07-28T07:33:41;19.20;99.90
76787;DHT22;65739;51.482;5.702;2023-07-28T07:36:14;19.30;99.90
76787;DHT22;65739;51.482;5.702;2023-07-28T07:38:40;19.30;99.90
76787;DHT22;65739;51.482;5.702;2023-07-28T07:41:07;19.30;99.90
76787;DHT22;65739;51.482;5.702;2023-07-28T07:43:33;19.30;99.90
76787;DHT22;65739;51.482;5.702;2023-07-28T07:45:59;19.30;99.90
76787;DHT22;65739;51.482;5.702;2023-07-28T07:48:27;19.30;99.90
76787;DHT22;65739;51.482;5.702;2023-07-28T07:50:53;19.30;99.90
76787;DHT22;65739;51.482;5.702;2023-07-28T07:53:18;19.40;99.90
76787;DHT22;65739;51.482;5.702;2023-07-28T07:55:44;19.20;99.90
76787;DHT22;65739;51.482;5.702;2023-07-28T07:58:10;19.30;99.90
76787;DHT22;65739;51.482;5.702;2023-07-28T08:00:37;19.40;99.90
76787;DHT22;65739;51.482;5.702;2023-07-28T08:03:03;19.40;99.90
76787;DHT22;65739;51.482;5.702;2023-07-28T08:05:30;19.20;99.90
76787;DHT22;65739;51.482;5.702;2023-07-28T08:07:56;19.20;99.90
76787;DHT22;65739;51.482;5.702;2023-07-28T08:10:22;19.20;99.90
76787;DHT22;65739;51.482;5.702;2023-07-28T08:12:48;19.20;99.90
76787;DHT22;65739;51.482;5.702;2023-07-28T08:15:16;19.30;99.90
76787;DHT22;65739;51.482;5.702;2023-07-28T08:17:42;19.30;99.90
76787;DHT22;65739;51.482;5.702;2023-07-28T08:20:07;19.40;99.90
76787;DHT22;65739;51.482;5.702;2023-07-28T08:22:33;19.40;99.90
76787;DHT22;65739;51.482;5.702;2023-07-28T08:24:59;19.50;99.90
76787;DHT22;65739;51.482;5.702;2023-07-28T08:27:25;19.50;99.90
76787;DHT22;65739;51.482;5.702;2023-07-28T08:29:50;19.50;99.90
76787;DHT22;65739;51.482;5.702;2023-07-28T08:32:16;19.50;99.90
76787;DHT22;65739;51.482;5.702;2023-07-28T08:34:42;19.50;99.90
76787;DHT22;65739;51.482;5.702;2023-07-28T08:37:08;19.50;99.90
76787;DHT22;65739;51.482;5.702;2023-07-28T08:39:33;19.50;99.90
76787;DHT22;65739;51.482;5.702;2023-07-28T08:42:03;19.60;99.90
76787;DHT22;65739;51.482;5.702;2023-07-28T08:44:33;19.50;99.90
76787;DHT22;65739;51.482;5.702;2023-07-28T08:47:00;19.60;99.90
76787;DHT22;65739;51.482;5.702;2023-07-28T08:49:26;19.60;99.90
76787;DHT22;65739;51.482;5.702;2023-07-28T08:51:52;19.80;99.90
76787;DHT22;65739;51.482;5.702;2023-07-28T08:54:22;19.80;99.90
76787;DHT22;65739;51.482;5.702;2023-07-28T08:56:48;19.90;99.90
76787;DHT22;65739;51.482;5.702;2023-07-28T08:59:23;20.20;99.90
76787;DHT22;65739;51.482;5.702;2023-07-28T09:01:52;20.60;99.90
76787;DHT22;65739;51.482;5.702;2023-07-28T09:04:17;20.80;99.90
76787;DHT22;65739;51.482;5.702;2023-07-28T09:06:47;20.90;99.90
76787;DHT22;65739;51.482;5.702;2023-07-28T09:09:17;21.00;99.90
76787;DHT22;65739;51.482;5.702;2023-07-28T09:11:47;21.30;99.90
76787;DHT22;65739;51.482;5.702;2023-07-28T09:14:14;21.30;99.90
76787;DHT22;65739;51.482;5.702;2023-07-28T09:16:42;21.50;99.90
76787;DHT22;65739;51.482;5.702;2023-07-28T09:19:10;21.50;99.90
76787;DHT22;65739;51.482;5.702;2023-07-28T09:21:38;21.40;99.90
76787;DHT22;65739;51.482;5.702;2023-07-28T09:24:05;21.30;99.90
76787;DHT22;65739;51.482;5.702;2023-07-28T09:26:42;21.30;99.90
76787;DHT22;65739;51.482;5.702;2023-07-28T09:29:19;21.70;99.90
76787;DHT22;65739;51.482;5.702;2023-07-28T09:31:49;21.90;99.90
76787;DHT22;65739;51.482;5.702;2023-07-28T09:34:27;21.60;99.90
76787;DHT22;65739;51.482;5.702;2023-07-28T09:36:57;21.60;99.90
76787;DHT22;65739;51.482;5.702;2023-07-28T09:39:23;21.50;99.90
76787;DHT22;65739;51.482;5.702;2023-07-28T09:41:49;21.60;99.90
76787;DHT22;65739;51.482;5.702;2023-07-28T09:44:16;21.60;99.90
76787;DHT22;65739;51.482;5.702;2023-07-28T09:46:55;21.80;99.90
76787;DHT22;65739;51.482;5.702;2023-07-28T09:49:34;22.00;99.90
76787;DHT22;65739;51.482;5.702;2023-07-28T09:52:05;22.00;99.90
76787;DHT22;65739;51.482;5.702;2023-07-28T09:54:34;22.10;99.90
76787;DHT22;65739;51.482;5.702;2023-07-28T09:57:04;22.10;99.90
76787;DHT22;65739;51.482;5.702;2023-07-28T09:59:37;22.20;99.90
76787;DHT22;65739;51.482;5.702;2023-07-28T10:02:03;22.00;99.90
76787;DHT22;65739;51.482;5.702;2023-07-28T10:04:32;21.80;99.90
76787;DHT22;65739;51.482;5.702;2023-07-28T10:06:58;21.90;99.90
76787;DHT22;65739;51.482;5.702;2023-07-28T10:09:26;22.00;99.90
76787;DHT22;65739;51.482;5.702;2023-07-28T10:11:54;22.40;99.90
76787;DHT22;65739;51.482;5.702;2023-07-28T10:14:32;22.90;99.90
76787;DHT22;65739;51.482;5.702;2023-07-28T10:17:00;23.50;99.90
76787;DHT22;65739;51.482;5.702;2023-07-28T10:19:33;23.70;99.90
76787;DHT22;65739;51.482;5.702;2023-07-28T10:22:10;23.70;99.90
76787;DHT22;65739;51.482;5.702;2023-07-28T10:25:01;23.40;99.90
76787;DHT22;65739;51.482;5.702;2023-07-28T10:27:36;23.20;99.90
76787;DHT22;65739;51.482;5.702;2023-07-28T10:30:03;23.20;99.90
76787;DHT22;65739;51.482;5.702;2023-07-28T10:32:39;23.10;99.90
76787;DHT22;65739;51.482;5.702;2023-07-28T10:37:45;23.30;99.90
76787;DHT22;65739;51.482;5.702;2023-07-28T10:40:31;23.10;99.90
76787;DHT22;65739;51.482;5.702;2023-07-28T10:42:59;22.90;99.90
76787;DHT22;65739;51.482;5.702;2023-07-28T10:45:26;22.90;99.90
76787;DHT22;65739;51.482;5.702;2023-07-28T10:47:53;23.00;99.90
76787;DHT22;65739;51.482;5.702;2023-07-28T10:50:21;23.10;99.90
76787;DHT22;65739;51.482;5.702;2023-07-28T10:52:46;23.50;99.90
76787;DHT22;65739;51.482;5.702;2023-07-28T10:55:21;24.20;99.90
76787;DHT22;65739;51.482;5.702;2023-07-28T10:57:48;24.70;99.90
76787;DHT22;65739;51.482;5.702;2023-07-28T11:00:19;24.80;99.90
76787;DHT22;65739;51.482;5.702;2023-07-28T11:02:46;24.60;99.90
76787;DHT22;65739;51.482;5.702;2023-07-28T11:05:26;24.50;99.90
76787;DHT22;65739;51.482;5.702;2023-07-28T11:07:58;24.70;99.90
76787;DHT22;65739;51.482;5.702;2023-07-28T11:10:33;24.80;99.90
76787;DHT22;65739;51.482;5.702;2023-07-28T11:13:05;24.80;99.90
76787;DHT22;65739;51.482;5.702;2023-07-28T11:15:33;25.20;99.90
76787;DHT22;65739;51.482;5.702;2023-07-28T11:17:59;25.70;99.90
76787;DHT22;65739;51.482;5.702;2023-07-28T11:20:26;25.60;99.90
76787;DHT22;65739;51.482;5.702;2023-07-28T11:22:55;25.50;99.90
76787;DHT22;65739;51.482;5.702;2023-07-28T11:25:22;25.40;99.90
76787;DHT22;65739;51.482;5.702;2023-07-28T11:27:48;25.40;99.90
76787;DHT22;65739;51.482;5.702;2023-07-28T11:30:16;25.60;99.90
76787;DHT22;65739;51.482;5.702;2023-07-28T11:32:43;25.90;99.90
76787;DHT22;65739;51.482;5.702;2023-07-28T11:35:11;26.20;99.90
76787;DHT22;65739;51.482;5.702;2023-07-28T11:37:42;26.40;99.90
76787;DHT22;65739;51.482;5.702;2023-07-28T11:40:09;25.90;99.90
76787;DHT22;65739;51.482;5.702;2023-07-28T11:45:08;25.90;99.90
76787;DHT22;65739;51.482;5.702;2023-07-28T11:47:35;26.20;99.90
76787;DHT22;65739;51.482;5.702;2023-07-28T11:50:01;26.10;99.90
76787;DHT22;65739;51.482;5.702;2023-07-28T11:54:59;26.10;99.90
76787;DHT22;65739;51.482;5.702;2023-07-28T11:57:26;25.90;99.90
76787;DHT22;65739;51.482;5.702;2023-07-28T11:59:52;26.30;99.90
76787;DHT22;65739;51.482;5.702;2023-07-28T12:02:29;26.50;99.90
76787;DHT22;65739;51.482;5.702;2023-07-28T12:04:55;26.30;99.90
76787;DHT22;65739;51.482;5.702;2023-07-28T12:07:31;26.10;99.90
76787;DHT22;65739;51.482;5.702;2023-07-28T12:10:05;25.90;99.90
76787;DHT22;65739;51.482;5.702;2023-07-28T12:12:43;25.60;99.90
76787;DHT22;65739;51.482;5.702;2023-07-28T12:15:44;25.10;99.90
76787;DHT22;65739;51.482;5.702;2023-07-28T12:18:14;24.80;99.90
76787;DHT22;65739;51.482;5.702;2023-07-28T12:20:45;25.10;99.90
76787;DHT22;65739;51.482;5.702;2023-07-28T12:23:17;25.00;99.90
76787;DHT22;65739;51.482;5.702;2023-07-28T12:25:43;24.70;99.90
76787;DHT22;65739;51.482;5.702;2023-07-28T12:28:10;24.80;99.90
76787;DHT22;65739;51.482;5.702;2023-07-28T12:30:36;25.00;99.90
76787;DHT22;65739;51.482;5.702;2023-07-28T12:33:05;25.00;99.90
76787;DHT22;65739;51.482;5.702;2023-07-28T12:35:32;24.70;99.90
76787;DHT22;65739;51.482;5.702;2023-07-28T12:38:00;24.90;99.90
76787;DHT22;65739;51.482;5.702;2023-07-28T12:40:27;24.50;99.90
76787;DHT22;65739;51.482;5.702;2023-07-28T12:42:55;24.40;99.90
76787;DHT22;65739;51.482;5.702;2023-07-28T12:45:20;24.40;99.90
76787;DHT22;65739;51.482;5.702;2023-07-28T12:47:46;24.20;99.90
76787;DHT22;65739;51.482;5.702;2023-07-28T12:50:12;24.20;99.90
76787;DHT22;65739;51.482;5.702;2023-07-28T12:52:38;24.30;99.90
76787;DHT22;65739;51.482;5.702;2023-07-28T12:55:04;24.20;99.90
76787;DHT22;65739;51.482;5.702;2023-07-28T12:57:31;24.10;99.90
76787;DHT22;65739;51.482;5.702;2023-07-28T12:59:57;24.10;99.90
76787;DHT22;65739;51.482;5.702;2023-07-28T13:02:22;24.30;99.90
76787;DHT22;65739;51.482;5.702;2023-07-28T13:04:48;24.50;99.90
76787;DHT22;65739;51.482;5.702;2023-07-28T13:07:14;25.10;99.90
76787;DHT22;65739;51.482;5.702;2023-07-28T13:09:40;25.50;99.90
76787;DHT22;65739;51.482;5.702;2023-07-28T13:12:07;26.30;99.90
76787;DHT22;65739;51.482;5.702;2023-07-28T13:14:33;26.20;99.90
76787;DHT22;65739;51.482;5.702;2023-07-28T13:16:59;26.00;99.90
76787;DHT22;65739;51.482;5.702;2023-07-28T13:19:24;26.20;99.90
76787;DHT22;65739;51.482;5.702;2023-07-28T13:21:50;26.30;99.90
76787;DHT22;65739;51.482;5.702;2023-07-28T13:24:16;26.10;99.90
76787;DHT22;65739;51.482;5.702;2023-07-28T13:26:41;26.30;99.90
76787;DHT22;65739;51.482;5.702;2023-07-28T13:29:07;25.80;99.90
76787;DHT22;65739;51.482;5.702;2023-07-28T13:31:33;25.70;99.90
76787;DHT22;65739;51.482;5.702;2023-07-28T13:33:59;25.30;99.90
76787;DHT22;65739;51.482;5.702;2023-07-28T13:36:24;25.10;99.90
76787;DHT22;65739;51.482;5.702;2023-07-28T13:38:50;25.20;99.90
76787;DHT22;65739;51.482;5.702;2023-07-28T13:41:16;25.30;99.90
76787;DHT22;65739;51.482;5.702;2023-07-28T13:43:41;25.10;99.90
76787;DHT22;65739;51.482;5.702;2023-07-28T13:46:07;25.10;99.90
76787;DHT22;65739;51.482;5.702;2023-07-28T13:48:34;25.20;99.90
76787;DHT22;65739;51.482;5.702;2023-07-28T13:51:01;25.30;99.90
76787;DHT22;65739;51.482;5.702;2023-07-28T13:53:27;25.70;99.90
76787;DHT22;65739;51.482;5.702;2023-07-28T13:55:54;26.00;99.90
76787;DHT22;65739;51.482;5.702;2023-07-28T13:58:20;26.50;99.90
76787;DHT22;65739;51.482;5.702;2023-07-28T14:00:45;26.30;99.90
76787;DHT22;65739;51.482;5.702;2023-07-28T14:03:11;26.00;99.90
76787;DHT22;65739;51.482;5.702;2023-07-28T14:05:38;25.70;99.90
76787;DHT22;65739;51.482;5.702;2023-07-28T14:08:03;25.50;99.90
76787;DHT22;65739;51.482;5.702;2023-07-28T14:10:29;25.20;99.90
76787;DHT22;65739;51.482;5.702;2023-07-28T14:12:54;25.00;99.90
76787;DHT22;65739;51.482;5.702;2023-07-28T14:15:20;25.00;99.90
76787;DHT22;65739;51.482;5.702;2023-07-28T14:17:46;25.00;99.90
76787;DHT22;65739;51.482;5.702;2023-07-28T14:20:11;24.80;99.90
76787;DHT22;65739;51.482;5.702;2023-07-28T14:22:37;25.00;99.90
76787;DHT22;65739;51.482;5.702;2023-07-28T14:25:03;24.90;99.90
76787;DHT22;65739;51.482;5.702;2023-07-28T14:27:29;24.90;99.90
76787;DHT22;65739;51.482;5.702;2023-07-28T14:29:54;24.90;99.90
76787;DHT22;65739;51.482;5.702;2023-07-28T14:32:20;24.70;99.90
76787;DHT22;65739;51.482;5.702;2023-07-28T14:34:45;24.40;99.90
76787;DHT22;65739;51.482;5.702;2023-07-28T14:37:11;24.00;99.90
76787;DHT22;65739;51.482;5.702;2023-07-28T14:39:37;23.80;99.90
76787;DHT22;65739;51.482;5.702;2023-07-28T14:42:03;23.70;99.90
76787;DHT22;65739;51.482;5.702;2023-07-28T14:44:29;23.70;99.90
76787;DHT22;65739;51.482;5.702;2023-07-28T14:46:54;23.70;99.90
76787;DHT22;65739;51.482;5.702;2023-07-28T14:49:20;24.10;99.90
76787;DHT22;65739;51.482;5.702;2023-07-28T14:51:46;24.70;99.90
76787;DHT22;65739;51.482;5.702;2023-07-28T14:54:12;25.00;99.90
76787;DHT22;65739;51.482;5.702;2023-07-28T14:56:37;25.40;99.90
76787;DHT22;65739;51.482;5.702;2023-07-28T14:59:03;25.80;99.90
76787;DHT22;65739;51.482;5.702;2023-07-28T15:01:30;26.20;99.90
76787;DHT22;65739;51.482;5.702;2023-07-28T15:03:56;26.00;99.90
76787;DHT22;65739;51.482;5.702;2023-07-28T15:06:22;25.70;99.90
76787;DHT22;65739;51.482;5.702;2023-07-28T15:08:47;25.30;99.90
76787;DHT22;65739;51.482;5.702;2023-07-28T15:11:13;24.80;99.90
76787;DHT22;65739;51.482;5.702;2023-07-28T15:13:39;24.50;99.90
76787;DHT22;65739;51.482;5.702;2023-07-28T15:16:05;24.30;99.90
76787;DHT22;65739;51.482;5.702;2023-07-28T15:18:31;24.30;99.90
76787;DHT22;65739;51.482;5.702;2023-07-28T15:20:57;24.20;99.90
76787;DHT22;65739;51.482;5.702;2023-07-28T15:23:25;24.30;99.90
76787;DHT22;65739;51.482;5.702;2023-07-28T15:25:51;24.40;99.90
76787;DHT22;65739;51.482;5.702;2023-07-28T15:28:18;24.50;99.90
76787;DHT22;65739;51.482;5.702;2023-07-28T15:30:44;24.50;99.90
76787;DHT22;65739;51.482;5.702;2023-07-28T15:33:13;24.40;99.90
76787;DHT22;65739;51.482;5.702;2023-07-28T15:35:40;24.30;99.90
76787;DHT22;65739;51.482;5.702;2023-07-28T15:38:06;24.20;99.90
76787;DHT22;65739;51.482;5.702;2023-07-28T15:40:32;24.10;99.90